createdAt,value
2022-11-27T00:01:49.706Z,17.33
2022-11-27T00:04:15.794Z,11.03
2022-11-27T00:06:41.950Z,16.87
2022-11-27T00:09:11.192Z,15.23
2022-11-27T00:11:40.580Z,13.97
2022-11-27T00:14:08.876Z,14.50
2022-11-27T00:16:34.927Z,19.40
2022-11-27T00:19:00.976Z,13.37
2022-11-27T00:21:32.838Z,11.23
2022-11-27T00:24:00.489Z,14.30
2022-11-27T00:26:28.669Z,13.33
2022-11-27T00:28:57.461Z,13.40
2022-11-27T00:31:29.556Z,13.27
2022-11-27T00:33:57.588Z,16.60
2022-11-27T00:36:24.242Z,11.90
2022-11-27T00:38:50.641Z,20.53
2022-11-27T00:41:25.629Z,12.87
2022-11-27T00:43:52.028Z,15.23
2022-11-27T00:46:25.247Z,15.83
2022-11-27T00:48:54.344Z,17.60
2022-11-27T00:51:21.727Z,15.70
2022-11-27T00:53:48.050Z,16.10
2022-11-27T00:56:27.484Z,20.17
2022-11-27T00:58:53.804Z,16.67
2022-11-27T01:01:25.058Z,11.27
2022-11-27T01:03:51.408Z,12.80
2022-11-27T01:06:18.633Z,10.93
2022-11-27T01:08:45.232Z,10.53
2022-11-27T01:11:24.983Z,15.07
2022-11-27T01:13:51.380Z,13.50
2022-11-27T01:16:20.036Z,9.80
2022-11-27T01:18:47.320Z,12.07
2022-11-27T01:21:15.605Z,17.03
2022-11-27T01:23:41.634Z,13.43
2022-11-27T01:26:08.649Z,13.60
2022-11-27T01:28:35.156Z,10.77
2022-11-27T01:31:05.761Z,12.67
2022-11-27T01:33:32.200Z,14.40
2022-11-27T01:36:02.516Z,11.33
2022-11-27T01:38:30.005Z,11.60
2022-11-27T01:41:09.552Z,16.17
2022-11-27T01:43:43.869Z,14.37
2022-11-27T01:46:34.180Z,14.00
2022-11-27T01:49:04.925Z,12.60
2022-11-27T01:51:31.112Z,9.30
2022-11-27T01:53:57.277Z,10.37
2022-11-27T01:56:23.721Z,12.37
2022-11-27T01:58:50.384Z,8.23
2022-11-27T02:01:16.628Z,10.33
2022-11-27T02:03:42.755Z,13.23
2022-11-27T02:06:12.511Z,12.63
2022-11-27T02:08:38.749Z,12.53
2022-11-27T02:11:10.892Z,13.17
2022-11-27T02:14:10.718Z,11.83
2022-11-27T02:16:44.895Z,11.13
2022-11-27T02:19:25.708Z,10.57
2022-11-27T02:22:21.315Z,8.10
2022-11-27T02:25:28.288Z,14.13
2022-11-27T02:28:04.647Z,15.60
2022-11-27T02:30:35.857Z,10.70
2022-11-27T02:33:05.751Z,13.00
2022-11-27T02:35:37.271Z,8.73
2022-11-27T02:38:39.562Z,9.07
2022-11-27T02:41:24.118Z,10.23
2022-11-27T02:43:50.937Z,15.63
2022-11-27T02:46:18.789Z,9.17
2022-11-27T02:48:56.862Z,8.00
2022-11-27T02:51:27.424Z,9.97
2022-11-27T02:53:56.680Z,11.37
2022-11-27T02:56:24.653Z,11.10
2022-11-27T02:58:52.058Z,14.00
2022-11-27T03:01:20.454Z,12.23
2022-11-27T03:03:49.448Z,13.93
2022-11-27T03:06:20.117Z,15.77
2022-11-27T03:08:53.695Z,11.90
2022-11-27T03:11:20.418Z,10.67
2022-11-27T03:13:49.754Z,13.13
2022-11-27T03:16:39.327Z,13.03
2022-11-27T03:19:16.006Z,15.43
2022-11-27T03:21:46.053Z,14.50
2022-11-27T03:24:12.159Z,10.93
2022-11-27T03:26:39.081Z,17.07
2022-11-27T03:29:08.579Z,10.60
2022-11-27T03:31:35.024Z,8.43
2022-11-27T03:34:01.355Z,14.47
2022-11-27T03:36:27.382Z,10.17
2022-11-27T03:38:54.748Z,12.40
2022-11-27T03:41:35.944Z,12.27
2022-11-27T03:44:28.376Z,9.83
2022-11-27T03:47:04.739Z,12.40
2022-11-27T03:50:04.894Z,12.23
2022-11-27T03:52:30.864Z,10.90
2022-11-27T03:55:02.916Z,23.83
2022-11-27T03:58:05.093Z,14.20
2022-11-27T04:00:35.465Z,13.47
2022-11-27T04:03:02.433Z,13.50
2022-11-27T04:05:28.465Z,11.23
2022-11-27T04:07:54.658Z,10.63
2022-11-27T04:10:20.996Z,10.23
2022-11-27T04:12:47.177Z,8.93
2022-11-27T04:15:13.542Z,9.47
2022-11-27T04:17:39.771Z,26.23
2022-11-27T04:20:06.634Z,10.80
2022-11-27T04:22:32.686Z,10.30
2022-11-27T04:24:58.721Z,15.80
2022-11-27T04:27:24.764Z,12.20
2022-11-27T04:29:50.828Z,9.43
2022-11-27T04:32:16.908Z,11.87
2022-11-27T04:34:43.096Z,10.23
2022-11-27T04:37:09.270Z,15.80
2022-11-27T04:39:35.308Z,15.67
2022-11-27T04:42:01.340Z,13.60
2022-11-27T04:44:27.381Z,9.97
2022-11-27T04:46:53.684Z,11.93
2022-11-27T04:49:19.771Z,7.13
2022-11-27T04:51:45.793Z,10.50
2022-11-27T04:54:12.118Z,8.83
2022-11-27T04:56:38.130Z,12.20
2022-11-27T04:59:04.572Z,8.90
2022-11-27T05:01:30.815Z,9.30
2022-11-27T05:03:56.926Z,9.27
2022-11-27T05:06:23.077Z,11.63
2022-11-27T05:08:49.312Z,10.13
2022-11-27T05:11:17.090Z,7.03
2022-11-27T05:13:43.669Z,9.20
2022-11-27T05:16:10.193Z,12.00
2022-11-27T05:18:36.317Z,14.87
2022-11-27T05:21:05.253Z,7.87
2022-11-27T05:23:32.215Z,24.83
2022-11-27T05:25:58.802Z,10.03
2022-11-27T05:28:26.827Z,8.73
2022-11-27T05:30:53.507Z,5.33
2022-11-27T05:33:19.550Z,9.53
2022-11-27T05:35:45.631Z,7.00
2022-11-27T05:38:12.213Z,7.83
2022-11-27T05:40:38.998Z,8.57
2022-11-27T05:43:05.061Z,8.37
2022-11-27T05:45:31.161Z,11.90
2022-11-27T05:47:57.187Z,10.77
2022-11-27T05:50:23.241Z,10.37
2022-11-27T05:52:49.286Z,17.77
2022-11-27T05:55:15.337Z,9.83
2022-11-27T05:57:41.350Z,10.23
2022-11-27T06:00:08.280Z,8.97
2022-11-27T06:02:34.402Z,12.40
2022-11-27T06:05:00.571Z,9.20
2022-11-27T06:07:26.705Z,11.43
2022-11-27T06:09:52.743Z,18.70
2022-11-27T06:12:18.767Z,7.67
2022-11-27T06:14:44.893Z,11.30
2022-11-27T06:17:10.915Z,7.07
2022-11-27T06:19:37.014Z,9.57
2022-11-27T06:22:03.017Z,10.57
2022-11-27T06:24:29.016Z,9.07
2022-11-27T06:26:55.026Z,13.17
2022-11-27T06:29:21.057Z,13.80
2022-11-27T06:31:47.179Z,6.43
2022-11-27T06:34:13.294Z,11.17
2022-11-27T06:36:40.157Z,10.27
2022-11-27T06:39:07.500Z,8.67
2022-11-27T06:41:33.568Z,10.90
2022-11-27T06:43:59.975Z,11.07
2022-11-27T06:46:27.334Z,12.50
2022-11-27T06:48:54.189Z,9.77
2022-11-27T06:51:23.630Z,11.30
2022-11-27T06:53:50.542Z,19.17
2022-11-27T06:56:19.009Z,15.97
2022-11-27T06:58:45.378Z,12.53
2022-11-27T07:01:14.844Z,9.00
2022-11-27T07:03:41.125Z,12.37
2022-11-27T07:06:10.552Z,14.97
2022-11-27T07:08:37.207Z,12.80
2022-11-27T07:11:19.864Z,10.10
2022-11-27T07:13:46.989Z,11.90
2022-11-27T07:16:13.427Z,17.63
2022-11-27T07:18:45.093Z,13.13
2022-11-27T07:21:11.718Z,11.90
2022-11-27T07:23:38.182Z,22.33
2022-11-27T07:26:10.358Z,15.40
2022-11-27T07:28:36.532Z,16.40
2022-11-27T07:31:03.133Z,12.90
2022-11-27T07:33:29.179Z,12.93
2022-11-27T07:36:00.400Z,11.57
2022-11-27T07:38:26.595Z,11.50
2022-11-27T07:40:54.045Z,10.40
2022-11-27T07:43:20.245Z,12.47
2022-11-27T07:45:46.319Z,13.27
2022-11-27T07:48:12.372Z,12.20
2022-11-27T07:50:41.229Z,14.67
2022-11-27T07:53:07.313Z,17.50
2022-11-27T07:55:33.333Z,16.30
2022-11-27T07:57:59.501Z,16.90
2022-11-27T08:00:25.623Z,11.57
2022-11-27T08:02:51.669Z,19.77
2022-11-27T08:05:17.934Z,15.57
2022-11-27T08:07:44.082Z,16.40
2022-11-27T08:10:10.251Z,16.53
2022-11-27T08:12:36.390Z,12.83
2022-11-27T08:15:04.991Z,16.43
2022-11-27T08:17:31.046Z,13.43
2022-11-27T08:19:57.083Z,14.80
2022-11-27T08:22:23.130Z,15.93
2022-11-27T08:24:50.872Z,15.20
2022-11-27T08:27:17.202Z,11.27
2022-11-27T08:29:43.547Z,13.27
2022-11-27T08:32:10.126Z,16.17
2022-11-27T08:34:36.706Z,11.07
2022-11-27T08:37:06.562Z,16.83
2022-11-27T08:39:32.780Z,9.17
2022-11-27T08:41:59.211Z,11.07
2022-11-27T08:44:25.308Z,9.90
2022-11-27T08:46:51.358Z,9.07
2022-11-27T08:49:17.468Z,14.43
2022-11-27T08:51:43.562Z,12.30
2022-11-27T08:54:09.608Z,11.57
2022-11-27T08:56:35.694Z,18.83
2022-11-27T08:59:02.424Z,14.70
2022-11-27T09:01:30.411Z,11.63
2022-11-27T09:03:56.636Z,11.03
2022-11-27T09:06:28.268Z,14.83
2022-11-27T09:08:59.004Z,9.80
2022-11-27T09:11:26.501Z,9.37
2022-11-27T09:13:52.762Z,14.20
2022-11-27T09:16:20.445Z,10.87
2022-11-27T09:18:47.950Z,14.00
2022-11-27T09:21:15.369Z,9.40
2022-11-27T09:23:42.169Z,10.27
2022-11-27T09:26:14.246Z,10.37
2022-11-27T09:28:40.988Z,12.27
2022-11-27T09:31:09.869Z,9.83
2022-11-27T09:33:37.560Z,13.23
2022-11-27T09:36:07.336Z,11.30
2022-11-27T09:38:33.674Z,8.83
2022-11-27T09:41:14.928Z,13.83
2022-11-27T09:43:45.528Z,14.10
2022-11-27T09:46:24.537Z,10.23
2022-11-27T09:48:51.240Z,12.17
2022-11-27T09:51:25.144Z,12.63
2022-11-27T09:54:19.786Z,9.33
2022-11-27T09:56:49.110Z,9.03
2022-11-27T09:59:19.822Z,10.10
2022-11-27T10:01:50.649Z,9.30
2022-11-27T10:04:19.187Z,10.30
2022-11-27T10:07:01.329Z,10.07
2022-11-27T10:09:42.626Z,8.30
2022-11-27T10:12:17.608Z,17.97
2022-11-27T10:14:46.726Z,7.90
2022-11-27T10:17:16.338Z,10.67
2022-11-27T10:20:13.517Z,8.90
2022-11-27T10:22:55.868Z,13.83
2022-11-27T10:25:28.080Z,14.90
2022-11-27T10:28:00.088Z,14.93
2022-11-27T10:30:29.065Z,11.90
2022-11-27T10:32:56.894Z,13.30
2022-11-27T10:35:28.965Z,8.53
2022-11-27T10:38:05.058Z,7.80
2022-11-27T10:40:53.885Z,8.80
2022-11-27T10:43:22.238Z,9.97
2022-11-27T10:45:52.386Z,8.50
2022-11-27T10:48:18.813Z,7.63
2022-11-27T10:50:45.609Z,10.40
2022-11-27T10:53:26.156Z,9.83
2022-11-27T10:55:52.678Z,8.73
2022-11-27T10:58:46.598Z,10.23
2022-11-27T11:01:15.523Z,9.80
2022-11-27T11:03:41.827Z,8.57
2022-11-27T11:06:23.220Z,8.70
2022-11-27T11:09:15.628Z,7.50
2022-11-27T11:11:41.810Z,8.00
2022-11-27T11:14:16.490Z,10.10
2022-11-27T11:16:43.619Z,7.40
2022-11-27T11:19:33.742Z,8.97
2022-11-27T11:22:04.244Z,9.27
2022-11-27T11:24:32.154Z,9.13
2022-11-27T11:27:04.972Z,9.27
2022-11-27T11:29:40.436Z,10.00
2022-11-27T11:32:14.363Z,9.60
2022-11-27T11:34:46.005Z,9.10
2022-11-27T11:37:22.869Z,7.90
2022-11-27T11:39:57.153Z,8.33
2022-11-27T11:42:26.144Z,8.60
2022-11-27T11:44:54.906Z,9.63
2022-11-27T11:47:24.344Z,10.17
2022-11-27T11:49:51.281Z,11.00
2022-11-27T11:52:23.292Z,7.33
2022-11-27T11:55:18.945Z,9.13
2022-11-27T11:58:09.624Z,10.70
2022-11-27T12:01:28.346Z,12.10
2022-11-27T12:04:26.725Z,6.23
2022-11-27T12:06:58.776Z,9.43
2022-11-27T12:09:36.658Z,5.73
2022-11-27T12:12:11.501Z,9.33
2022-11-27T12:14:40.712Z,6.80
2022-11-27T12:17:34.900Z,5.53
2022-11-27T12:20:21.155Z,5.30
2022-11-27T12:23:06.053Z,5.93
2022-11-27T12:25:36.238Z,6.47
2022-11-27T12:28:31.049Z,4.47
2022-11-27T12:31:13.846Z,4.67
2022-11-27T12:33:55.859Z,7.20
2022-11-27T12:36:37.521Z,4.40
2022-11-27T12:39:15.702Z,4.70
2022-11-27T12:42:00.474Z,8.00
2022-11-27T12:44:52.713Z,5.47
2022-11-27T12:47:27.694Z,6.97
2022-11-27T12:49:57.759Z,3.47
2022-11-27T12:52:38.088Z,4.27
2022-11-27T12:55:11.569Z,3.97
2022-11-27T12:57:43.673Z,4.97
2022-11-27T13:00:22.360Z,5.50
2022-11-27T13:03:24.639Z,4.00
2022-11-27T13:06:05.003Z,5.40
2022-11-27T13:08:52.851Z,4.63
2022-11-27T13:11:22.547Z,4.77
2022-11-27T13:13:51.700Z,5.57
2022-11-27T13:16:33.506Z,6.87
2022-11-27T13:19:15.538Z,7.87
2022-11-27T13:21:42.453Z,9.73
2022-11-27T13:24:12.238Z,10.70
2022-11-27T13:27:14.933Z,6.70
2022-11-27T13:29:50.416Z,5.33
2022-11-27T13:32:25.693Z,4.87
2022-11-27T13:34:52.851Z,6.60
2022-11-27T13:37:34.607Z,6.23
2022-11-27T13:40:13.125Z,4.60
2022-11-27T13:42:44.049Z,5.03
2022-11-27T13:45:22.386Z,11.13
2022-11-27T13:47:49.632Z,3.87
2022-11-27T13:50:18.647Z,4.47
2022-11-27T13:52:53.888Z,7.23
2022-11-27T13:55:25.945Z,5.90
2022-11-27T13:57:53.822Z,5.97
2022-11-27T14:00:33.216Z,7.80
2022-11-27T14:02:59.437Z,4.03
2022-11-27T14:05:40.115Z,4.20
2022-11-27T14:08:16.281Z,3.60
2022-11-27T14:10:53.358Z,5.37
2022-11-27T14:13:22.416Z,4.90
2022-11-27T14:16:01.097Z,3.97
2022-11-27T14:18:28.853Z,4.87
2022-11-27T14:21:02.190Z,5.07
2022-11-27T14:23:37.263Z,18.00
2022-11-27T14:26:24.204Z,6.50
2022-11-27T14:28:56.544Z,5.20
2022-11-27T14:31:28.262Z,5.03
2022-11-27T14:36:41.457Z,8.13
2022-11-27T14:39:22.305Z,6.80
2022-11-27T14:41:58.092Z,3.87
2022-11-27T14:44:24.140Z,4.67
2022-11-27T14:46:50.705Z,4.90
2022-11-27T14:49:19.293Z,4.23
2022-11-27T14:51:45.430Z,4.97
2022-11-27T14:54:25.171Z,4.10
2022-11-27T14:56:51.613Z,5.10
2022-11-27T14:59:22.584Z,4.87
2022-11-27T15:02:17.968Z,5.37
2022-11-27T15:04:45.669Z,7.13
2022-11-27T15:07:22.394Z,4.10
2022-11-27T15:09:50.459Z,6.57
2022-11-27T15:12:24.043Z,4.23
2022-11-27T15:14:59.493Z,6.97
2022-11-27T15:17:28.185Z,5.30
2022-11-27T15:19:55.169Z,4.20
2022-11-27T15:22:21.366Z,12.73
2022-11-27T15:25:00.820Z,4.67
2022-11-27T15:27:27.021Z,4.13
2022-11-27T15:30:09.981Z,4.23
2022-11-27T15:32:50.488Z,4.47
2022-11-27T15:35:33.277Z,5.30
2022-11-27T15:38:04.821Z,4.50
2022-11-27T15:40:35.463Z,7.20
2022-11-27T15:43:02.095Z,8.37
2022-11-27T15:45:30.019Z,6.17
2022-11-27T15:48:00.853Z,8.07
2022-11-27T15:50:28.534Z,7.00
2022-11-27T15:52:54.674Z,14.80
2022-11-27T15:55:21.337Z,7.77
2022-11-27T15:57:47.719Z,6.57
2022-11-27T16:00:14.625Z,5.93
2022-11-27T16:02:40.980Z,9.93
2022-11-27T16:05:08.059Z,8.40
2022-11-27T16:07:34.224Z,4.83
2022-11-27T16:10:00.338Z,5.37
2022-11-27T16:12:26.374Z,5.33
2022-11-27T16:14:52.409Z,6.40
2022-11-27T16:17:18.536Z,5.83
2022-11-27T16:19:45.096Z,7.17
2022-11-27T16:22:11.103Z,5.70
2022-11-27T16:24:37.293Z,5.20
2022-11-27T16:27:03.415Z,4.67
2022-11-27T16:29:29.783Z,4.90
2022-11-27T16:31:56.399Z,12.33
2022-11-27T16:34:22.484Z,5.77
2022-11-27T16:36:48.617Z,20.67
2022-11-27T16:39:16.512Z,8.83
2022-11-27T16:41:42.678Z,5.50
2022-11-27T16:44:11.257Z,5.47
2022-11-27T16:46:38.229Z,6.23
2022-11-27T16:49:05.850Z,5.97
2022-11-27T16:51:33.168Z,8.20
2022-11-27T16:54:02.389Z,5.70
2022-11-27T16:56:29.963Z,5.67
2022-11-27T16:59:02.379Z,5.00
2022-11-27T17:01:36.338Z,5.20
2022-11-27T17:04:08.146Z,4.93
2022-11-27T17:06:35.576Z,5.23
2022-11-27T17:09:04.496Z,4.70
2022-11-27T17:11:33.085Z,4.70
2022-11-27T17:14:00.886Z,7.27
2022-11-27T17:16:27.747Z,5.13
2022-11-27T17:18:53.846Z,4.70
2022-11-27T17:21:25.801Z,4.60
2022-11-27T17:24:11.671Z,5.27
2022-11-27T17:26:42.388Z,4.10
2022-11-27T17:29:09.839Z,3.27
2022-11-27T17:31:36.424Z,4.20
2022-11-27T17:34:04.178Z,6.27
2022-11-27T17:36:36.538Z,4.20
2022-11-27T17:39:04.736Z,5.07
2022-11-27T17:41:31.631Z,4.63
2022-11-27T17:43:57.724Z,5.23
2022-11-27T17:46:26.696Z,4.20
2022-11-27T17:48:53.752Z,4.90
2022-11-27T17:51:20.281Z,4.77
2022-11-27T17:53:46.809Z,4.60
2022-11-27T17:56:15.108Z,4.97
2022-11-27T17:58:41.274Z,3.87
2022-11-27T18:01:13.682Z,4.17
2022-11-27T18:03:41.762Z,4.60
2022-11-27T18:06:08.356Z,9.00
2022-11-27T18:08:34.734Z,4.40
2022-11-27T18:11:12.189Z,4.83
2022-11-27T18:13:38.380Z,4.13
2022-11-27T18:16:06.380Z,4.97
2022-11-27T18:18:32.640Z,4.23
2022-11-27T18:20:59.019Z,4.80
2022-11-27T18:23:25.107Z,4.60
2022-11-27T18:25:51.132Z,4.70
2022-11-27T18:28:17.196Z,4.37
2022-11-27T18:30:43.256Z,4.43
2022-11-27T18:33:09.497Z,4.70
2022-11-27T18:35:40.872Z,4.30
2022-11-27T18:38:06.929Z,5.47
2022-11-27T18:40:36.703Z,4.57
2022-11-27T18:43:03.090Z,4.40
2022-11-27T18:45:33.280Z,3.77
2022-11-27T18:48:01.797Z,5.40
2022-11-27T18:50:29.866Z,3.63
2022-11-27T18:52:56.119Z,3.73
2022-11-27T18:55:22.302Z,3.97
2022-11-27T18:57:48.350Z,3.73
2022-11-27T19:00:14.923Z,4.00
2022-11-27T19:02:41.056Z,4.10
2022-11-27T19:05:07.311Z,5.17
2022-11-27T19:07:33.398Z,4.07
2022-11-27T19:09:59.423Z,4.57
2022-11-27T19:12:25.471Z,6.53
2022-11-27T19:14:51.549Z,4.30
2022-11-27T19:17:18.022Z,3.70
2022-11-27T19:19:59.231Z,4.20
2022-11-27T19:22:25.317Z,5.10
2022-11-27T19:24:51.383Z,4.47
2022-11-27T19:27:17.544Z,4.13
2022-11-27T19:29:43.781Z,4.63
2022-11-27T19:32:09.998Z,4.60
2022-11-27T19:34:36.106Z,4.40
2022-11-27T19:37:02.139Z,4.90
2022-11-27T19:39:28.457Z,4.70
2022-11-27T19:41:54.594Z,4.73
2022-11-27T19:44:20.685Z,4.50
2022-11-27T19:46:47.010Z,3.90
2022-11-27T19:49:16.882Z,4.30
2022-11-27T19:51:43.683Z,4.67
2022-11-27T19:54:12.377Z,5.00
2022-11-27T19:56:39.359Z,4.83
2022-11-27T19:59:05.990Z,5.17
2022-11-27T20:01:32.201Z,4.17
2022-11-27T20:03:59.168Z,4.83
2022-11-27T20:06:26.001Z,4.77
2022-11-27T20:08:53.993Z,4.87
2022-11-27T20:11:22.324Z,3.73
2022-11-27T20:13:48.376Z,3.70
2022-11-27T20:16:16.865Z,4.80
2022-11-27T20:18:43.278Z,4.27
2022-11-27T20:21:17.816Z,4.27
2022-11-27T20:23:44.971Z,3.80
2022-11-27T20:26:13.922Z,4.30
2022-11-27T20:28:40.697Z,4.50
2022-11-27T20:31:12.469Z,6.80
2022-11-27T20:33:38.548Z,4.00
2022-11-27T20:36:10.496Z,4.68
2022-11-27T20:38:36.623Z,6.10
2022-11-27T20:41:07.704Z,5.10
2022-11-27T20:43:34.326Z,4.07
2022-11-27T20:46:00.591Z,4.90
2022-11-27T20:48:27.219Z,3.90
2022-11-27T20:50:53.341Z,4.80
2022-11-27T20:53:19.390Z,4.20
2022-11-27T20:55:45.470Z,4.00
2022-11-27T20:58:11.553Z,4.00
2022-11-27T21:00:39.414Z,4.20
2022-11-27T21:03:10.366Z,4.07
2022-11-27T21:05:38.460Z,4.40
2022-11-27T21:08:04.594Z,4.57
2022-11-27T21:10:30.643Z,4.20
2022-11-27T21:12:56.791Z,4.23
2022-11-27T21:15:22.954Z,4.50
2022-11-27T21:17:49.044Z,4.57
2022-11-27T21:20:15.225Z,4.67
2022-11-27T21:22:43.266Z,4.40
2022-11-27T21:25:09.521Z,4.47
2022-11-27T21:27:36.660Z,4.60
2022-11-27T21:30:04.328Z,4.93
2022-11-27T21:32:30.443Z,5.20
2022-11-27T21:34:56.545Z,5.03
2022-11-27T21:37:23.974Z,4.80
2022-11-27T21:39:50.979Z,4.60
2022-11-27T21:42:17.248Z,5.00
2022-11-27T21:44:43.543Z,4.43
2022-11-27T21:47:12.416Z,4.40
2022-11-27T21:49:39.112Z,4.80
2022-11-27T21:52:05.918Z,5.70
2022-11-27T21:54:32.973Z,4.73
2022-11-27T21:56:59.036Z,5.20
2022-11-27T21:59:25.156Z,5.73
2022-11-27T22:01:51.370Z,5.07
2022-11-27T22:04:17.884Z,4.57
2022-11-27T22:06:44.712Z,5.30
2022-11-27T22:09:15.397Z,4.43
2022-11-27T22:11:43.379Z,6.30
2022-11-27T22:14:09.585Z,5.40
2022-11-27T22:16:42.916Z,4.83
2022-11-27T22:19:10.761Z,5.63
2022-11-27T22:21:36.832Z,5.13
2022-11-27T22:24:03.083Z,6.67
2022-11-27T22:26:29.398Z,5.50
2022-11-27T22:28:57.160Z,5.10
2022-11-27T22:31:25.690Z,5.93
2022-11-27T22:33:52.487Z,4.93
2022-11-27T22:36:29.692Z,5.67
2022-11-27T22:38:56.142Z,5.00
2022-11-27T22:41:24.763Z,5.37
2022-11-27T22:43:51.092Z,4.93
2022-11-27T22:46:31.548Z,5.37
2022-11-27T22:48:58.731Z,5.40
2022-11-27T22:51:25.877Z,5.67
2022-11-27T22:53:52.064Z,4.80
2022-11-27T22:56:18.152Z,5.00
2022-11-27T22:58:44.310Z,5.50
2022-11-27T23:01:19.124Z,5.90
2022-11-27T23:03:45.236Z,5.27
2022-11-27T23:06:13.853Z,5.53
2022-11-27T23:08:41.126Z,5.20
2022-11-27T23:11:08.838Z,5.20
2022-11-27T23:13:35.284Z,5.33
2022-11-27T23:16:03.445Z,5.30
2022-11-27T23:18:29.570Z,5.70
2022-11-27T23:20:55.617Z,5.03
2022-11-27T23:23:21.632Z,5.10
2022-11-27T23:25:47.672Z,5.53
2022-11-27T23:28:13.713Z,4.90
2022-11-27T23:30:39.785Z,5.43
2022-11-27T23:33:05.877Z,5.20
2022-11-27T23:35:31.952Z,6.03
2022-11-27T23:37:58.062Z,5.73
2022-11-27T23:40:24.715Z,7.90
2022-11-27T23:42:50.982Z,5.63
2022-11-27T23:45:17.172Z,5.60
2022-11-27T23:47:43.262Z,5.67
2022-11-27T23:50:09.777Z,6.07
2022-11-27T23:52:35.805Z,5.40
2022-11-27T23:55:02.558Z,5.17
2022-11-27T23:57:28.632Z,6.03
2022-11-27T23:59:54.669Z,5.50
